createdAt,value
2022-08-04T00:01:26.900Z,2.08
2022-08-04T00:04:29.502Z,2.30
2022-08-04T00:07:08.652Z,2.20
2022-08-04T00:10:05.880Z,2.10
2022-08-04T00:12:39.703Z,2.20
2022-08-04T00:15:15.556Z,2.15
2022-08-04T00:17:56.139Z,1.98
2022-08-04T00:20:25.179Z,2.20
2022-08-04T00:22:52.939Z,2.05
2022-08-04T00:25:21.102Z,2.10
2022-08-04T00:27:49.370Z,2.08
2022-08-04T00:30:17.136Z,2.47
2022-08-04T00:32:45.087Z,2.20
2022-08-04T00:35:16.570Z,2.12
2022-08-04T00:37:45.550Z,2.40
2022-08-04T00:40:31.920Z,2.47
2022-08-04T00:43:05.501Z,2.40
2022-08-04T00:46:16.091Z,2.87
2022-08-04T00:48:54.961Z,2.50
2022-08-04T00:52:32.893Z,2.80
2022-08-04T00:55:13.370Z,2.87
2022-08-04T00:58:25.810Z,2.62
2022-08-04T01:00:59.866Z,3.22
2022-08-04T01:03:43.222Z,2.83
2022-08-04T01:06:36.292Z,3.40
2022-08-04T01:09:45.519Z,3.35
2022-08-04T01:12:53.533Z,3.35
2022-08-04T01:15:21.642Z,3.33
2022-08-04T01:18:09.608Z,3.70
2022-08-04T01:21:19.219Z,3.00
2022-08-04T01:24:10.319Z,3.72
2022-08-04T01:26:57.886Z,3.65
2022-08-04T01:29:43.943Z,3.47
2022-08-04T01:32:38.245Z,3.75
2022-08-04T01:35:21.537Z,3.35
2022-08-04T01:37:59.181Z,3.58
2022-08-04T01:40:27.509Z,3.42
2022-08-04T01:42:56.039Z,3.92
2022-08-04T01:45:24.970Z,3.20
2022-08-04T01:47:54.582Z,3.20
2022-08-04T01:50:23.678Z,3.35
2022-08-04T01:52:54.320Z,3.42
2022-08-04T01:55:23.511Z,3.37
2022-08-04T01:57:53.001Z,3.50
2022-08-04T02:00:27.050Z,3.85
2022-08-04T02:02:56.704Z,3.28
2022-08-04T02:05:26.409Z,3.90
2022-08-04T02:08:44.270Z,3.10
2022-08-04T02:11:22.561Z,3.17
2022-08-04T02:14:12.759Z,3.65
2022-08-04T02:16:52.709Z,3.37
2022-08-04T02:19:30.771Z,3.22
2022-08-04T02:22:08.970Z,4.05
2022-08-04T02:24:46.582Z,3.90
2022-08-04T02:27:15.279Z,3.65
2022-08-04T02:29:52.140Z,3.35
2022-08-04T02:32:27.650Z,3.70
2022-08-04T02:35:06.820Z,3.92
2022-08-04T02:37:35.619Z,3.50
2022-08-04T02:40:07.053Z,3.12
2022-08-04T02:42:35.371Z,3.30
2022-08-04T02:45:04.138Z,3.25
2022-08-04T02:48:29.478Z,3.37
2022-08-04T02:50:28.395Z,3.10
2022-08-04T02:53:01.392Z,2.95
2022-08-04T02:55:30.241Z,3.95
2022-08-04T02:58:03.372Z,3.20
2022-08-04T03:00:32.230Z,3.15
2022-08-04T03:03:22.691Z,3.00
2022-08-04T03:06:12.350Z,4.10
2022-08-04T03:08:43.120Z,3.10
2022-08-04T03:11:34.029Z,3.12
2022-08-04T03:14:20.552Z,3.17
2022-08-04T03:17:25.669Z,3.20
2022-08-04T03:20:15.261Z,2.83
2022-08-04T03:23:12.074Z,3.05
2022-08-04T03:26:24.368Z,3.30
2022-08-04T03:29:12.887Z,3.00
2022-08-04T03:32:18.311Z,3.30
2022-08-04T03:35:04.529Z,3.10
2022-08-04T03:38:02.918Z,3.20
2022-08-04T03:40:42.751Z,3.22
2022-08-04T03:43:58.242Z,2.95
2022-08-04T03:46:30.838Z,3.12
2022-08-04T03:49:17.579Z,2.72
2022-08-04T03:52:28.933Z,3.03
2022-08-04T03:55:33.019Z,3.30
2022-08-04T03:58:38.699Z,3.25
2022-08-04T04:01:24.999Z,2.92
2022-08-04T04:04:11.788Z,2.95
2022-08-04T04:06:52.896Z,2.90
2022-08-04T04:09:56.787Z,2.70
2022-08-04T04:12:49.964Z,2.90
2022-08-04T04:15:30.399Z,3.10
2022-08-04T04:18:29.450Z,2.70
2022-08-04T04:21:22.142Z,2.78
2022-08-04T04:24:18.100Z,2.80
2022-08-04T04:26:57.602Z,3.20
2022-08-04T04:29:47.390Z,3.10
2022-08-04T04:32:36.671Z,2.92
2022-08-04T04:35:29.859Z,2.72
2022-08-04T04:38:16.079Z,2.37
2022-08-04T04:41:10.700Z,2.50
2022-08-04T04:44:06.129Z,2.80
2022-08-04T04:46:54.972Z,2.85
2022-08-04T04:49:35.399Z,2.92
2022-08-04T04:52:09.241Z,2.70
2022-08-04T04:55:00.839Z,2.60
2022-08-04T04:57:54.109Z,2.87
2022-08-04T05:00:20.661Z,2.72
2022-08-04T05:03:28.068Z,2.55
2022-08-04T05:06:34.652Z,2.42
2022-08-04T05:09:37.000Z,2.78
2022-08-04T05:14:32.560Z,2.28
2022-08-04T05:15:26.398Z,2.62
2022-08-04T05:17:55.911Z,3.22
2022-08-04T05:20:31.328Z,2.25
2022-08-04T05:23:09.178Z,2.72
2022-08-04T05:25:59.543Z,2.90
2022-08-04T05:28:34.331Z,2.85
2022-08-04T05:31:20.741Z,2.50
2022-08-04T05:34:03.322Z,2.90
2022-08-04T05:36:41.391Z,2.20
2022-08-04T05:39:18.036Z,2.47
2022-08-04T05:41:55.102Z,2.58
2022-08-04T05:44:25.509Z,2.50
2022-08-04T05:46:56.865Z,3.05
2022-08-04T05:49:26.658Z,2.42
2022-08-04T05:51:56.879Z,2.20
2022-08-04T05:54:25.399Z,2.50
2022-08-04T05:56:54.139Z,2.55
2022-08-04T05:59:25.801Z,2.42
2022-08-04T06:01:57.631Z,2.37
2022-08-04T06:04:47.720Z,2.80
2022-08-04T06:07:15.689Z,3.15
2022-08-04T06:09:44.031Z,2.17
2022-08-04T06:12:16.152Z,2.47
2022-08-04T06:14:46.311Z,2.60
2022-08-04T06:18:32.162Z,2.08
2022-08-04T06:20:19.244Z,2.37
2022-08-04T06:22:53.139Z,2.33
2022-08-04T06:25:25.411Z,2.60
2022-08-04T06:27:53.679Z,2.42
2022-08-04T06:30:26.412Z,2.55
2022-08-04T06:33:03.847Z,2.60
2022-08-04T06:35:34.088Z,2.50
2022-08-04T06:38:03.260Z,2.53
2022-08-04T06:40:34.403Z,2.30
2022-08-04T06:43:04.852Z,2.25
2022-08-04T06:45:35.027Z,2.33
2022-08-04T06:48:05.809Z,2.45
2022-08-04T06:51:28.203Z,2.60
2022-08-04T06:53:26.475Z,2.85
2022-08-04T06:55:55.056Z,2.10
2022-08-04T06:58:23.471Z,2.65
2022-08-04T07:00:52.284Z,2.28
2022-08-04T07:03:21.943Z,2.37
2022-08-04T07:05:51.586Z,2.70
2022-08-04T07:08:20.964Z,2.65
2022-08-04T07:10:49.137Z,2.72
2022-08-04T07:13:18.166Z,2.53
2022-08-04T07:15:47.289Z,2.80
2022-08-04T07:18:15.167Z,2.72
2022-08-04T07:20:44.638Z,2.37
2022-08-04T07:23:18.027Z,2.30
2022-08-04T07:26:01.125Z,2.20
2022-08-04T07:28:42.345Z,2.43
2022-08-04T07:31:33.196Z,2.30
2022-08-04T07:34:17.414Z,2.40
2022-08-04T07:36:55.690Z,2.67
2022-08-04T07:39:28.133Z,2.15
2022-08-04T07:42:02.549Z,2.22
2022-08-04T07:44:35.730Z,2.65
2022-08-04T07:47:06.200Z,2.33
2022-08-04T07:49:54.351Z,1.98
2022-08-04T07:52:23.268Z,2.50
2022-08-04T07:54:51.918Z,2.33
2022-08-04T07:57:39.815Z,2.22
2022-08-04T08:00:10.733Z,1.80
2022-08-04T08:02:39.628Z,2.20
2022-08-04T08:05:10.720Z,2.00
2022-08-04T08:07:50.706Z,2.10
2022-08-04T08:10:24.119Z,2.22
2022-08-04T08:12:53.270Z,2.42
2022-08-04T08:15:22.067Z,2.03
2022-08-04T08:17:58.861Z,2.00
2022-08-04T08:20:32.718Z,2.15
2022-08-04T08:23:02.266Z,2.15
2022-08-04T08:25:33.906Z,2.50
2022-08-04T08:28:04.759Z,2.58
2022-08-04T08:30:36.278Z,2.10
2022-08-04T08:33:10.239Z,2.10
2022-08-04T08:36:02.820Z,2.30
2022-08-04T08:38:47.999Z,2.97
2022-08-04T08:41:21.569Z,2.08
2022-08-04T08:44:05.944Z,1.90
2022-08-04T08:50:02.515Z,2.05
2022-08-04T08:52:57.499Z,1.98
2022-08-04T08:55:54.230Z,2.03
2022-08-04T08:58:55.506Z,2.00
2022-08-04T09:01:44.928Z,2.28
2022-08-04T09:04:54.671Z,2.00
2022-08-04T09:07:49.460Z,2.10
2022-08-04T09:10:42.702Z,2.30
2022-08-04T09:13:30.890Z,1.80
2022-08-04T09:16:04.469Z,2.12
2022-08-04T09:18:43.471Z,2.20
2022-08-04T09:21:34.350Z,1.95
2022-08-04T09:24:35.078Z,2.30
2022-08-04T09:27:16.566Z,2.20
2022-08-04T09:29:48.870Z,2.30
2022-08-04T09:32:29.399Z,2.62
2022-08-04T09:35:08.587Z,2.10
2022-08-04T09:37:45.850Z,2.35
2022-08-04T09:40:31.142Z,2.28
2022-08-04T09:44:42.100Z,1.90
2022-08-04T09:46:34.385Z,2.30
2022-08-04T09:49:14.990Z,2.05
2022-08-04T09:51:57.690Z,2.30
2022-08-04T09:55:01.096Z,2.12
2022-08-04T09:57:42.292Z,2.33
2022-08-04T10:00:13.849Z,2.40
2022-08-04T10:02:45.271Z,2.60
2022-08-04T10:05:23.751Z,2.10
2022-08-04T10:08:16.198Z,2.50
2022-08-04T10:11:00.550Z,2.10
2022-08-04T10:13:31.454Z,2.20
2022-08-04T10:16:33.370Z,2.15
2022-08-04T10:19:23.559Z,2.10
2022-08-04T10:22:28.129Z,1.95
2022-08-04T10:25:37.444Z,2.20
2022-08-04T10:28:14.297Z,2.55
2022-08-04T10:30:52.557Z,2.37
2022-08-04T10:33:33.751Z,2.30
2022-08-04T10:36:05.110Z,2.62
2022-08-04T10:39:04.470Z,2.83
2022-08-04T10:41:56.144Z,2.10
2022-08-04T10:44:57.730Z,2.57
2022-08-04T10:47:32.602Z,2.17
2022-08-04T10:50:02.372Z,2.35
2022-08-04T10:52:34.652Z,2.37
2022-08-04T10:56:07.921Z,2.30
2022-08-04T10:58:20.570Z,2.30
2022-08-04T11:00:49.639Z,2.78
2022-08-04T11:03:25.194Z,2.53
2022-08-04T11:05:56.179Z,2.30
2022-08-04T11:08:45.773Z,2.42
2022-08-04T11:12:00.494Z,2.50
2022-08-04T11:14:33.793Z,2.45
2022-08-04T11:17:05.820Z,2.50
2022-08-04T11:19:44.720Z,2.45
2022-08-04T11:22:26.311Z,2.60
2022-08-04T11:25:14.584Z,2.42
2022-08-04T11:27:56.877Z,2.60
2022-08-04T11:30:25.859Z,3.25
2022-08-04T11:33:18.147Z,2.70
2022-08-04T11:36:17.257Z,2.58
2022-08-04T11:39:33.922Z,2.78
2022-08-04T11:42:16.662Z,2.80
2022-08-04T11:44:56.519Z,2.85
2022-08-04T11:47:24.854Z,2.72
2022-08-04T11:50:10.460Z,3.08
2022-08-04T11:52:41.393Z,3.33
2022-08-04T11:55:11.610Z,2.90
2022-08-04T11:57:40.312Z,2.95
2022-08-04T12:00:10.822Z,2.25
2022-08-04T12:03:10.200Z,2.30
2022-08-04T12:05:53.406Z,2.60
2022-08-04T12:08:56.641Z,2.80
2022-08-04T12:11:40.041Z,2.87
2022-08-04T12:14:21.046Z,3.00
2022-08-04T12:16:55.488Z,2.87
2022-08-04T12:19:38.631Z,3.33
2022-08-04T12:22:22.750Z,2.90
2022-08-04T12:25:08.632Z,2.50
2022-08-04T12:27:48.782Z,2.47
2022-08-04T12:30:57.310Z,2.90
2022-08-04T12:34:03.261Z,2.50
2022-08-04T12:36:56.651Z,3.05
2022-08-04T12:39:26.484Z,2.78
2022-08-04T12:42:05.096Z,2.58
2022-08-04T12:44:39.063Z,2.62
2022-08-04T12:47:26.805Z,2.55
2022-08-04T12:50:04.011Z,2.70
2022-08-04T12:55:32.044Z,2.28
2022-08-04T12:58:02.374Z,2.40
2022-08-04T13:00:40.742Z,2.55
2022-08-04T13:03:12.997Z,2.78
2022-08-04T13:05:42.079Z,2.60
2022-08-04T13:08:11.956Z,3.35
2022-08-04T13:10:47.825Z,3.03
2022-08-04T13:13:21.580Z,2.83
2022-08-04T13:15:59.899Z,3.15
2022-08-04T13:18:32.334Z,2.90
2022-08-04T13:21:22.829Z,3.00
2022-08-04T13:24:10.841Z,2.65
2022-08-04T13:27:03.772Z,2.92
2022-08-04T13:29:59.695Z,2.60
2022-08-04T13:32:28.050Z,2.70
2022-08-04T13:34:56.933Z,2.45
2022-08-04T13:37:35.445Z,2.47
2022-08-04T13:40:10.157Z,2.80
2022-08-04T13:42:39.000Z,2.60
2022-08-04T13:45:09.110Z,2.67
2022-08-04T13:47:38.814Z,2.75
2022-08-04T13:50:27.472Z,2.42
2022-08-04T13:53:00.142Z,2.40
2022-08-04T13:55:36.905Z,2.87
2022-08-04T13:58:10.270Z,2.47
2022-08-04T14:00:42.660Z,2.40
2022-08-04T14:03:19.095Z,2.62
2022-08-04T14:06:08.391Z,2.40
2022-08-04T14:08:46.143Z,3.17
2022-08-04T14:12:06.015Z,3.33
2022-08-04T14:14:17.353Z,2.72
2022-08-04T14:17:01.921Z,2.83
2022-08-04T14:19:50.781Z,2.45
2022-08-04T14:22:27.952Z,2.40
2022-08-04T14:25:04.631Z,2.30
2022-08-04T14:27:56.350Z,2.85
2022-08-04T14:30:31.759Z,2.90
2022-08-04T14:34:01.462Z,2.47
2022-08-04T14:35:59.198Z,2.40
2022-08-04T14:38:49.140Z,2.72
2022-08-04T14:41:20.288Z,2.67
2022-08-04T14:43:51.358Z,2.72
2022-08-04T14:46:20.303Z,2.70
2022-08-04T14:49:10.863Z,2.40
2022-08-04T14:51:46.948Z,2.75
2022-08-04T14:54:18.386Z,2.50
2022-08-04T14:56:58.140Z,2.78
2022-08-04T14:59:26.625Z,2.58
2022-08-04T15:02:01.202Z,2.45
2022-08-04T15:04:31.617Z,2.50
2022-08-04T15:07:04.472Z,2.45
2022-08-04T15:09:34.230Z,3.00
2022-08-04T15:12:04.534Z,2.60
2022-08-04T15:14:36.914Z,2.80
2022-08-04T15:17:12.498Z,2.40
2022-08-04T15:19:56.691Z,2.60
2022-08-04T15:22:25.035Z,2.30
2022-08-04T15:24:55.597Z,2.50
2022-08-04T15:27:30.497Z,2.67
2022-08-04T15:30:02.700Z,2.87
2022-08-04T15:32:37.670Z,2.50
2022-08-04T15:35:09.885Z,2.37
2022-08-04T15:38:02.742Z,2.80
2022-08-04T15:40:36.766Z,2.87
2022-08-04T15:43:23.270Z,2.78
2022-08-04T15:46:37.252Z,2.83
2022-08-04T15:48:46.359Z,3.05
2022-08-04T15:51:31.946Z,2.75
2022-08-04T15:54:02.436Z,2.22
2022-08-04T15:56:31.808Z,2.72
2022-08-04T15:58:59.676Z,2.95
2022-08-04T16:01:28.209Z,2.85
2022-08-04T16:03:59.882Z,2.97
2022-08-04T16:06:30.460Z,2.95
2022-08-04T16:09:03.632Z,2.70
2022-08-04T16:11:37.000Z,3.30
2022-08-04T16:14:06.722Z,2.67
2022-08-04T16:16:37.252Z,2.70
2022-08-04T16:19:16.869Z,2.92
2022-08-04T16:21:49.923Z,2.55
2022-08-04T16:24:22.132Z,2.90
2022-08-04T16:26:54.850Z,2.40
2022-08-04T16:29:26.556Z,3.12
2022-08-04T16:32:10.839Z,2.72
2022-08-04T16:34:55.468Z,3.30
2022-08-04T16:37:31.203Z,3.10
2022-08-04T16:40:33.696Z,2.78
2022-08-04T16:43:22.923Z,2.58
2022-08-04T16:45:59.686Z,2.75
2022-08-04T16:48:35.546Z,2.40
2022-08-04T16:51:15.429Z,2.55
2022-08-04T16:54:02.650Z,2.60
2022-08-04T16:56:35.320Z,2.40
2022-08-04T16:59:09.524Z,2.62
2022-08-04T17:01:46.688Z,2.80
2022-08-04T17:04:15.110Z,2.70
2022-08-04T17:06:44.902Z,2.95
2022-08-04T17:09:17.351Z,2.72
2022-08-04T17:11:47.238Z,2.80
2022-08-04T17:14:23.511Z,3.22
2022-08-04T17:16:53.240Z,3.10
2022-08-04T17:19:25.964Z,2.55
2022-08-04T17:22:04.300Z,2.65
2022-08-04T17:24:40.826Z,2.70
2022-08-04T17:28:19.303Z,2.80
2022-08-04T17:29:59.159Z,2.70
2022-08-04T17:32:27.606Z,2.85
2022-08-04T17:34:58.786Z,3.17
2022-08-04T17:37:40.848Z,3.28
2022-08-04T17:40:13.505Z,3.28
2022-08-04T17:42:44.967Z,3.10
2022-08-04T17:45:51.272Z,3.05
2022-08-04T17:48:09.238Z,2.83
2022-08-04T17:50:43.485Z,3.17
2022-08-04T17:53:13.259Z,3.15
2022-08-04T17:55:49.505Z,2.95
2022-08-04T17:58:20.862Z,3.40
2022-08-04T18:03:51.675Z,2.85
2022-08-04T18:06:25.815Z,3.05
2022-08-04T18:08:58.775Z,3.50
2022-08-04T18:11:29.707Z,3.47
2022-08-04T18:14:10.544Z,3.08
2022-08-04T18:16:45.489Z,2.92
2022-08-04T18:19:15.472Z,3.60
2022-08-04T18:21:59.371Z,3.05
2022-08-04T18:24:35.025Z,2.90
2022-08-04T18:27:06.457Z,3.25
2022-08-04T18:29:39.406Z,3.12
2022-08-04T18:32:09.125Z,3.42
2022-08-04T18:34:40.697Z,3.22
2022-08-04T18:38:05.171Z,3.60
2022-08-04T18:43:01.514Z,2.90
2022-08-04T18:45:34.646Z,2.97
2022-08-04T18:48:04.025Z,3.12
2022-08-04T18:51:11.237Z,3.85
2022-08-04T18:53:20.770Z,3.53
2022-08-04T18:58:39.764Z,3.15
2022-08-04T19:03:59.049Z,3.35
2022-08-04T19:06:27.415Z,3.15
2022-08-04T19:08:55.387Z,3.10
2022-08-04T19:11:53.992Z,3.00
2022-08-04T19:14:13.199Z,3.00
2022-08-04T19:16:46.079Z,2.78
2022-08-04T19:19:17.460Z,3.60
2022-08-04T19:22:01.298Z,3.45
2022-08-04T19:24:34.353Z,3.10
2022-08-04T19:27:06.859Z,3.17
2022-08-04T19:29:40.791Z,4.35
2022-08-04T19:32:14.502Z,3.47
2022-08-04T19:34:47.743Z,3.62
2022-08-04T19:37:57.627Z,3.37
2022-08-04T19:40:08.214Z,3.37
2022-08-04T19:42:37.923Z,3.35
2022-08-04T19:45:06.866Z,3.72
2022-08-04T19:48:11.186Z,3.97
2022-08-04T19:50:24.003Z,3.70
2022-08-04T19:52:52.890Z,3.17
2022-08-04T19:55:36.783Z,3.30
2022-08-04T19:58:08.564Z,3.05
2022-08-04T20:00:38.002Z,3.03
2022-08-04T20:03:11.544Z,3.60
2022-08-04T20:05:53.405Z,3.58
2022-08-04T20:08:27.960Z,3.60
2022-08-04T20:10:56.449Z,3.10
2022-08-04T20:13:37.073Z,3.40
2022-08-04T20:16:28.429Z,3.00
2022-08-04T20:18:59.499Z,3.17
2022-08-04T20:21:53.952Z,3.67
2022-08-04T20:24:38.115Z,3.65
2022-08-04T20:27:11.574Z,3.50
2022-08-04T20:29:49.330Z,3.40
2022-08-04T20:32:23.459Z,3.78
2022-08-04T20:34:53.459Z,3.92
2022-08-04T20:37:25.229Z,3.80
2022-08-04T20:39:55.612Z,3.90
2022-08-04T20:42:26.907Z,3.08
2022-08-04T20:44:56.219Z,3.17
2022-08-04T20:47:26.610Z,3.55
2022-08-04T20:49:59.320Z,3.20
2022-08-04T20:52:29.873Z,3.65
2022-08-04T20:54:57.713Z,3.60
2022-08-04T20:57:47.482Z,3.35
2022-08-04T21:00:14.189Z,3.53
2022-08-04T21:02:42.430Z,3.85
2022-08-04T21:05:12.510Z,3.80
2022-08-04T21:07:41.819Z,3.62
2022-08-04T21:10:12.484Z,3.70
2022-08-04T21:12:40.371Z,3.30
2022-08-04T21:15:13.416Z,3.67
2022-08-04T21:17:56.792Z,3.60
2022-08-04T21:23:01.990Z,3.60
2022-08-04T21:25:30.384Z,4.37
2022-08-04T21:27:59.041Z,4.07
2022-08-04T21:30:37.066Z,3.40
2022-08-04T21:33:22.062Z,3.60
2022-08-04T21:35:55.068Z,3.50
2022-08-04T21:38:25.093Z,3.70
2022-08-04T21:41:01.891Z,3.50
2022-08-04T21:43:42.723Z,4.10
2022-08-04T21:46:11.750Z,3.67
2022-08-04T21:48:42.416Z,3.62
2022-08-04T21:51:59.150Z,4.03
2022-08-04T21:54:15.057Z,3.80
2022-08-04T21:56:51.419Z,4.07
2022-08-04T22:02:09.738Z,3.47
2022-08-04T22:04:37.850Z,4.87
2022-08-04T22:07:05.589Z,4.10
2022-08-04T22:09:38.492Z,4.00
2022-08-04T22:12:12.129Z,4.07
2022-08-04T22:14:40.745Z,3.60
2022-08-04T22:17:13.744Z,3.75
2022-08-04T22:19:55.861Z,3.97
2022-08-04T22:22:29.267Z,3.62
2022-08-04T22:25:01.810Z,3.62
2022-08-04T22:27:55.297Z,4.00
2022-08-04T22:30:24.414Z,3.83
2022-08-04T22:32:57.299Z,4.00
2022-08-04T22:35:36.063Z,3.72
2022-08-04T22:38:26.878Z,3.83
2022-08-04T22:41:01.855Z,3.30
2022-08-04T22:43:33.315Z,4.00
2022-08-04T22:46:06.520Z,4.10
2022-08-04T22:48:36.261Z,3.58
2022-08-04T22:51:06.409Z,3.75
2022-08-04T22:53:36.070Z,3.65
2022-08-04T22:56:10.713Z,3.60
2022-08-04T22:58:45.487Z,3.83
2022-08-04T23:01:15.744Z,3.73
2022-08-04T23:03:55.222Z,3.45
2022-08-04T23:06:28.349Z,3.15
2022-08-04T23:08:57.740Z,3.85
2022-08-04T23:11:33.366Z,3.22
2022-08-04T23:14:04.342Z,3.35
2022-08-04T23:16:40.299Z,3.30
2022-08-04T23:19:12.114Z,3.12
2022-08-04T23:21:47.710Z,3.15
2022-08-04T23:24:29.703Z,3.58
2022-08-04T23:26:59.401Z,3.37
2022-08-04T23:29:27.686Z,3.08
2022-08-04T23:32:15.616Z,3.08
2022-08-04T23:34:48.443Z,3.40
2022-08-04T23:37:16.645Z,3.60
2022-08-04T23:40:15.737Z,3.22
2022-08-04T23:42:32.654Z,3.37
2022-08-04T23:45:00.658Z,2.70
2022-08-04T23:48:16.754Z,2.92
2022-08-04T23:50:16.520Z,2.87
2022-08-04T23:52:44.696Z,3.20
2022-08-04T23:55:19.099Z,2.95
2022-08-04T23:58:06.015Z,3.00
